createdAt,value
2018-03-03T00:01:00.614Z,81.00
2018-03-03T00:03:26.980Z,81.10
2018-03-03T00:05:53.346Z,81.70
2018-03-03T00:08:19.815Z,80.70
2018-03-03T00:10:46.191Z,80.40
2018-03-03T00:13:12.542Z,80.60
2018-03-03T00:15:38.940Z,80.50
2018-03-03T00:18:05.310Z,80.20
2018-03-03T00:20:31.671Z,79.70
2018-03-03T00:22:58.786Z,80.00
2018-03-03T00:25:25.903Z,80.30
2018-03-03T00:27:52.273Z,80.20
2018-03-03T00:30:18.644Z,80.00
2018-03-03T00:32:45.824Z,80.40
2018-03-03T00:35:12.915Z,80.40
2018-03-03T00:37:39.275Z,80.30
2018-03-03T00:40:06.412Z,80.90
2018-03-03T00:42:33.519Z,81.80
2018-03-03T00:44:59.912Z,81.80
2018-03-03T00:47:27.045Z,81.60
2018-03-03T00:49:54.153Z,81.60
2018-03-03T00:52:20.512Z,81.60
2018-03-03T00:54:46.882Z,81.00
2018-03-03T00:57:13.313Z,80.80
2018-03-03T00:59:39.690Z,80.90
2018-03-03T01:02:06.061Z,80.90
2018-03-03T01:04:33.173Z,81.20
2018-03-03T01:06:59.528Z,81.20
2018-03-03T01:09:25.907Z,81.40
2018-03-03T01:11:52.286Z,81.10
2018-03-03T01:14:18.648Z,81.10
2018-03-03T01:16:45.766Z,80.40
2018-03-03T01:19:12.171Z,80.40
2018-03-03T01:21:38.527Z,80.60
2018-03-03T01:24:04.895Z,80.70
2018-03-03T01:26:31.267Z,80.60
2018-03-03T01:28:57.607Z,80.90
2018-03-03T01:31:23.969Z,80.50
2018-03-03T01:33:51.100Z,80.60
2018-03-03T01:36:17.457Z,80.50
2018-03-03T01:38:44.587Z,80.00
2018-03-03T01:41:11.683Z,80.10
2018-03-03T01:43:38.052Z,80.10
2018-03-03T01:46:04.431Z,79.70
2018-03-03T01:48:30.810Z,79.70
2018-03-03T01:50:57.230Z,79.80
2018-03-03T01:53:23.583Z,79.50
2018-03-03T01:55:49.942Z,79.30
2018-03-03T01:58:17.169Z,79.60
2018-03-03T02:00:43.540Z,79.60
2018-03-03T02:03:09.926Z,80.80
2018-03-03T02:05:36.280Z,80.20
2018-03-03T02:08:03.386Z,79.80
2018-03-03T02:10:29.720Z,79.80
2018-03-03T02:12:56.113Z,79.80
2018-03-03T02:15:22.488Z,80.60
2018-03-03T02:17:48.846Z,80.90
2018-03-03T02:20:15.937Z,81.00
2018-03-03T02:22:42.298Z,80.90
2018-03-03T02:25:08.657Z,81.00
2018-03-03T02:27:35.784Z,80.50
2018-03-03T02:30:02.157Z,80.50
2018-03-03T02:32:29.254Z,80.30
2018-03-03T02:34:55.613Z,80.20
2018-03-03T02:37:22.740Z,80.70
2018-03-03T02:39:49.122Z,80.70
2018-03-03T02:42:15.494Z,80.70
2018-03-03T02:44:41.850Z,80.20
2018-03-03T02:47:08.213Z,80.70
2018-03-03T02:49:34.563Z,80.90
2018-03-03T02:52:00.934Z,80.10
2018-03-03T02:54:27.306Z,80.60
2018-03-03T02:56:53.683Z,80.70
2018-03-03T02:59:20.035Z,81.10
2018-03-03T03:01:46.399Z,81.00
2018-03-03T03:04:12.751Z,81.70
2018-03-03T03:06:39.131Z,82.60
2018-03-03T03:09:05.548Z,81.90
2018-03-03T03:11:31.922Z,81.60
2018-03-03T03:13:59.051Z,81.10
2018-03-03T03:16:26.142Z,82.30
2018-03-03T03:18:52.514Z,81.90
2018-03-03T03:21:19.629Z,81.90
2018-03-03T03:23:46.047Z,81.90
2018-03-03T03:26:12.421Z,82.00
2018-03-03T03:28:38.783Z,82.60
2018-03-03T03:31:05.189Z,82.40
2018-03-03T03:33:31.557Z,82.40
2018-03-03T03:35:58.653Z,81.20
2018-03-03T03:38:25.002Z,81.20
2018-03-03T03:40:51.362Z,81.20
2018-03-03T03:43:18.464Z,80.90
2018-03-03T03:45:44.819Z,80.90
2018-03-03T03:48:11.177Z,81.20
2018-03-03T03:50:37.542Z,81.30
2018-03-03T03:53:03.917Z,81.90
2018-03-03T03:55:30.362Z,82.20
2018-03-03T03:57:57.470Z,81.90
2018-03-03T04:00:23.856Z,81.90
2018-03-03T04:02:50.233Z,82.10
2018-03-03T04:05:16.627Z,82.30
2018-03-03T04:07:42.975Z,81.90
2018-03-03T04:10:09.338Z,82.00
2018-03-03T04:12:35.691Z,81.40
2018-03-03T04:15:02.058Z,81.30
2018-03-03T04:17:28.407Z,80.70
2018-03-03T04:19:54.786Z,80.60
2018-03-03T04:22:21.884Z,80.70
2018-03-03T04:24:48.285Z,80.70
2018-03-03T04:27:14.676Z,80.80
2018-03-03T04:29:41.045Z,80.80
2018-03-03T04:32:08.184Z,82.20
2018-03-03T04:34:35.287Z,82.30
2018-03-03T04:37:01.802Z,81.60
2018-03-03T04:39:28.212Z,81.30
2018-03-03T04:41:54.569Z,81.20
2018-03-03T04:44:20.974Z,80.70
2018-03-03T04:46:47.358Z,80.90
2018-03-03T04:49:13.835Z,80.70
2018-03-03T04:51:40.190Z,80.40
2018-03-03T04:54:06.576Z,80.90
2018-03-03T04:56:32.970Z,80.90
2018-03-03T04:59:01.410Z,80.80
2018-03-03T05:01:33.834Z,80.30
2018-03-03T05:04:01.956Z,79.50
2018-03-03T05:06:33.119Z,78.80
2018-03-03T05:08:59.514Z,78.80
2018-03-03T05:11:26.646Z,80.20
2018-03-03T05:14:11.042Z,79.80
2018-03-03T05:16:53.907Z,80.00
2018-03-03T05:19:26.472Z,80.00
2018-03-03T05:22:08.940Z,80.20
2018-03-03T05:24:42.206Z,80.30
2018-03-03T05:27:16.035Z,80.40
2018-03-03T05:29:49.128Z,80.90
2018-03-03T05:32:21.430Z,80.80
2018-03-03T05:34:53.774Z,81.90
2018-03-03T05:37:26.362Z,81.00
2018-03-03T05:40:10.506Z,80.60
2018-03-03T05:42:43.020Z,80.30
2018-03-03T05:45:15.578Z,80.60
2018-03-03T05:47:47.930Z,80.70
2018-03-03T05:50:30.211Z,81.10
2018-03-03T05:53:03.414Z,80.90
2018-03-03T05:55:35.566Z,80.90
2018-03-03T05:58:19.391Z,81.00
2018-03-03T06:00:52.715Z,81.00
2018-03-03T06:03:38.850Z,80.80
2018-03-03T06:06:08.048Z,80.70
2018-03-03T06:08:35.357Z,80.80
2018-03-03T06:11:02.478Z,80.80
2018-03-03T06:13:28.884Z,80.80
2018-03-03T06:15:55.278Z,80.70
2018-03-03T06:18:21.622Z,80.50
2018-03-03T06:20:47.986Z,80.50
2018-03-03T06:23:14.346Z,80.90
2018-03-03T06:25:41.489Z,80.20
2018-03-03T06:28:08.617Z,80.20
2018-03-03T06:30:34.978Z,80.20
2018-03-03T06:33:02.128Z,80.20
2018-03-03T06:35:29.221Z,80.10
2018-03-03T06:37:55.607Z,80.30
2018-03-03T06:40:21.962Z,80.20
2018-03-03T06:42:48.335Z,80.60
2018-03-03T06:45:14.687Z,80.80
2018-03-03T06:47:41.986Z,80.80
2018-03-03T06:50:08.362Z,80.50
2018-03-03T06:52:34.724Z,80.50
2018-03-03T06:55:01.838Z,80.10
2018-03-03T06:57:28.236Z,80.10
2018-03-03T06:59:54.633Z,79.80
2018-03-03T07:02:21.720Z,79.10
2018-03-03T07:04:48.070Z,79.10
2018-03-03T07:07:14.430Z,80.40
2018-03-03T07:09:41.582Z,80.30
2018-03-03T07:12:08.728Z,79.40
2018-03-03T07:14:38.902Z,79.90
2018-03-03T07:17:05.343Z,79.90
2018-03-03T07:19:31.740Z,79.90
2018-03-03T07:21:58.840Z,79.70
2018-03-03T07:24:25.205Z,79.70
2018-03-03T07:26:51.618Z,79.20
2018-03-03T07:29:17.988Z,79.00
2018-03-03T07:31:44.351Z,79.80
2018-03-03T07:34:10.721Z,79.50
2018-03-03T07:36:37.849Z,80.20
2018-03-03T07:39:04.293Z,80.20
2018-03-03T07:41:30.687Z,81.00
2018-03-03T07:43:57.168Z,81.80
2018-03-03T07:46:23.523Z,83.20
2018-03-03T07:48:49.964Z,81.80
2018-03-03T07:51:16.398Z,82.20
2018-03-03T07:53:42.757Z,81.90
2018-03-03T07:56:09.131Z,82.90
2018-03-03T07:58:47.467Z,79.80
2018-03-03T08:01:13.859Z,79.80
2018-03-03T08:03:40.354Z,78.80
2018-03-03T08:06:06.770Z,78.50
2018-03-03T08:08:33.204Z,79.40
2018-03-03T08:10:59.590Z,80.40
2018-03-03T08:13:25.955Z,80.00
2018-03-03T08:15:53.057Z,79.00
2018-03-03T08:18:19.426Z,78.90
2018-03-03T08:20:46.533Z,78.00
2018-03-03T08:23:12.915Z,78.00
2018-03-03T08:25:40.046Z,79.00
2018-03-03T08:28:07.169Z,79.30
2018-03-03T08:30:33.573Z,79.30
2018-03-03T08:33:00.031Z,80.00
2018-03-03T08:35:26.399Z,78.80
2018-03-03T08:37:53.519Z,76.20
2018-03-03T08:40:19.889Z,76.20
2018-03-03T08:42:46.259Z,73.50
2018-03-03T08:45:12.616Z,73.20
2018-03-03T08:47:38.954Z,74.30
2018-03-03T08:50:05.551Z,74.60
2018-03-03T08:52:31.951Z,75.00
2018-03-03T08:54:58.351Z,74.90
2018-03-03T08:57:25.454Z,76.30
2018-03-03T08:59:51.812Z,76.30
2018-03-03T09:02:18.209Z,74.80
2018-03-03T09:04:45.292Z,74.70
2018-03-03T09:07:11.655Z,74.70
2018-03-03T09:09:38.776Z,75.30
2018-03-03T09:12:05.158Z,75.30
2018-03-03T09:14:31.528Z,76.20
2018-03-03T09:16:57.890Z,75.60
2018-03-03T09:19:24.255Z,74.90
2018-03-03T09:21:50.614Z,74.60
2018-03-03T09:24:16.993Z,75.90
2018-03-03T09:26:44.104Z,69.60
2018-03-03T09:29:10.481Z,69.60
2018-03-03T09:31:36.852Z,70.10
2018-03-03T09:34:03.327Z,70.70
2018-03-03T09:36:30.488Z,71.90
2018-03-03T09:38:57.609Z,71.90
2018-03-03T09:41:23.969Z,71.90
2018-03-03T09:43:51.075Z,69.80
2018-03-03T09:46:17.474Z,69.80
2018-03-03T09:48:43.892Z,67.40
2018-03-03T09:51:10.334Z,67.60
2018-03-03T09:53:36.727Z,67.80
2018-03-03T09:56:04.759Z,67.20
2018-03-03T09:58:31.134Z,68.40
2018-03-03T10:00:57.550Z,69.40
2018-03-03T10:03:24.810Z,67.60
2018-03-03T10:05:51.258Z,66.40
2018-03-03T10:08:17.675Z,64.80
2018-03-03T10:10:44.063Z,65.80
2018-03-03T10:13:10.419Z,69.50
2018-03-03T10:15:36.831Z,69.90
2018-03-03T10:18:03.219Z,69.40
2018-03-03T10:20:29.580Z,70.60
2018-03-03T10:22:55.955Z,69.50
2018-03-03T10:25:22.330Z,71.50
2018-03-03T10:27:48.695Z,72.20
2018-03-03T10:30:15.051Z,71.20
2018-03-03T10:32:41.430Z,70.50
2018-03-03T10:35:07.859Z,69.60
2018-03-03T10:37:34.257Z,68.70
2018-03-03T10:40:00.662Z,69.60
2018-03-03T10:42:27.035Z,71.10
2018-03-03T10:44:53.394Z,71.60
2018-03-03T10:47:19.753Z,72.20
2018-03-03T10:49:46.137Z,71.20
2018-03-03T10:52:13.279Z,70.70
2018-03-03T10:54:40.375Z,70.90
2018-03-03T10:57:06.771Z,70.10
2018-03-03T10:59:33.874Z,70.00
2018-03-03T11:02:00.237Z,69.90
2018-03-03T11:04:26.604Z,71.10
2018-03-03T11:06:53.029Z,71.10
2018-03-03T11:09:19.426Z,69.20
2018-03-03T11:11:45.823Z,69.70
2018-03-03T11:14:12.227Z,69.40
2018-03-03T11:16:38.659Z,67.80
2018-03-03T11:19:05.026Z,66.40
2018-03-03T11:21:31.430Z,67.10
2018-03-03T11:23:57.855Z,67.20
2018-03-03T11:26:25.994Z,67.10
2018-03-03T11:28:52.399Z,67.00
2018-03-03T11:31:18.802Z,66.40
2018-03-03T11:33:46.057Z,63.80
2018-03-03T11:36:12.430Z,64.30
2018-03-03T11:38:38.786Z,64.30
2018-03-03T11:41:05.887Z,65.90
2018-03-03T11:43:32.373Z,65.90
2018-03-03T11:45:59.543Z,67.20
2018-03-03T11:48:26.632Z,66.40
2018-03-03T11:50:52.998Z,66.40
2018-03-03T11:53:19.363Z,64.30
2018-03-03T11:55:45.764Z,63.30
2018-03-03T11:58:12.880Z,64.50
2018-03-03T12:00:39.267Z,64.50
2018-03-03T12:03:05.653Z,65.50
2018-03-03T12:05:32.021Z,63.20
2018-03-03T12:07:59.136Z,63.70
2018-03-03T12:10:25.539Z,63.70
2018-03-03T12:12:51.930Z,62.20
2018-03-03T12:15:19.055Z,60.60
2018-03-03T12:17:45.421Z,60.50
2018-03-03T12:20:11.787Z,62.10
2018-03-03T12:22:38.164Z,60.00
2018-03-03T12:25:04.593Z,60.10
2018-03-03T12:27:31.040Z,60.80
2018-03-03T12:29:58.211Z,61.50
2018-03-03T12:32:24.586Z,62.20
2018-03-03T12:34:50.957Z,60.40
2018-03-03T12:37:17.346Z,60.60
2018-03-03T12:39:43.721Z,60.40
2018-03-03T12:42:10.092Z,62.30
2018-03-03T12:44:36.430Z,60.20
2018-03-03T12:47:02.820Z,59.40
2018-03-03T12:49:29.183Z,58.00
2018-03-03T12:51:55.577Z,59.30
2018-03-03T12:54:21.931Z,58.90
2018-03-03T12:56:48.340Z,57.60
2018-03-03T12:59:15.462Z,57.10
2018-03-03T13:01:41.827Z,57.10
2018-03-03T13:04:08.268Z,57.00
2018-03-03T13:06:34.624Z,58.00
2018-03-03T13:09:01.006Z,58.90
2018-03-03T13:11:28.323Z,58.80
2018-03-03T13:13:54.732Z,59.40
2018-03-03T13:16:21.135Z,59.40
2018-03-03T13:18:47.497Z,59.80
2018-03-03T13:21:13.870Z,60.20
2018-03-03T13:23:40.238Z,58.40
2018-03-03T13:26:06.651Z,59.00
2018-03-03T13:28:33.052Z,58.20
2018-03-03T13:30:59.476Z,57.70
2018-03-03T13:33:25.838Z,57.70
2018-03-03T13:35:52.947Z,55.10
2018-03-03T13:38:19.314Z,55.10
2018-03-03T13:40:46.471Z,55.10
2018-03-03T13:43:13.570Z,54.10
2018-03-03T13:45:39.942Z,54.10
2018-03-03T13:48:06.305Z,54.00
2018-03-03T13:50:32.698Z,53.40
2018-03-03T13:52:59.072Z,53.40
2018-03-03T13:55:25.445Z,53.60
2018-03-03T13:57:51.819Z,53.70
2018-03-03T14:00:18.941Z,54.40
2018-03-03T14:02:45.308Z,54.40
2018-03-03T14:05:11.686Z,54.70
2018-03-03T14:07:38.051Z,55.30
2018-03-03T14:10:05.155Z,54.60
2018-03-03T14:12:31.533Z,54.50
2018-03-03T14:14:58.652Z,53.60
2018-03-03T14:17:25.038Z,53.60
2018-03-03T14:19:51.423Z,52.80
2018-03-03T14:22:17.796Z,54.30
2018-03-03T14:24:44.166Z,53.10
2018-03-03T14:27:10.553Z,53.00
2018-03-03T14:29:37.651Z,54.40
2018-03-03T14:32:05.106Z,54.40
2018-03-03T14:34:44.908Z,53.80
2018-03-03T14:37:24.555Z,53.80
2018-03-03T14:39:50.927Z,54.40
2018-03-03T14:42:17.311Z,55.10
2018-03-03T14:44:43.709Z,55.60
2018-03-03T14:47:10.118Z,55.70
2018-03-03T14:49:36.717Z,56.30
2018-03-03T14:52:03.151Z,55.40
2018-03-03T14:54:29.524Z,54.10
2018-03-03T14:56:55.974Z,54.50
2018-03-03T14:59:23.086Z,55.10
2018-03-03T15:01:49.501Z,55.10
2018-03-03T15:04:15.888Z,54.60
2018-03-03T15:06:42.254Z,55.20
2018-03-03T15:09:08.623Z,55.60
2018-03-03T15:11:34.987Z,55.70
2018-03-03T15:14:01.351Z,55.50
2018-03-03T15:16:27.718Z,56.10
2018-03-03T15:18:54.118Z,55.80
2018-03-03T15:23:52.692Z,54.40
2018-03-03T15:26:19.822Z,56.90
2018-03-03T15:28:47.685Z,55.40
2018-03-03T15:31:14.077Z,54.90
2018-03-03T15:33:40.451Z,55.60
2018-03-03T15:36:06.821Z,54.90
2018-03-03T15:38:33.189Z,54.10
2018-03-03T15:40:59.617Z,53.40
2018-03-03T15:43:26.044Z,53.10
2018-03-03T15:45:52.397Z,53.30
2018-03-03T15:48:18.780Z,54.70
2018-03-03T15:50:45.882Z,54.70
2018-03-03T15:53:12.446Z,54.60
2018-03-03T15:55:38.882Z,52.90
2018-03-03T15:58:05.982Z,51.70
2018-03-03T16:00:32.354Z,51.70
2018-03-03T16:02:59.480Z,52.50
2018-03-03T16:05:25.843Z,52.50
2018-03-03T16:07:52.967Z,53.00
2018-03-03T16:10:19.327Z,53.00
2018-03-03T16:12:46.443Z,53.80
2018-03-03T16:15:12.821Z,53.80
2018-03-03T16:17:39.218Z,54.60
2018-03-03T16:20:05.596Z,54.60
2018-03-03T16:22:31.971Z,53.80
2018-03-03T16:24:58.379Z,53.90
2018-03-03T16:27:24.812Z,54.40
2018-03-03T16:29:51.145Z,54.50
2018-03-03T16:32:17.507Z,54.70
2018-03-03T16:34:43.875Z,54.50
2018-03-03T16:37:10.286Z,54.00
2018-03-03T16:39:37.381Z,54.20
2018-03-03T16:42:03.767Z,54.20
2018-03-03T16:44:30.903Z,55.00
2018-03-03T16:46:57.271Z,55.00
2018-03-03T16:49:23.678Z,54.70
2018-03-03T16:51:50.804Z,54.80
2018-03-03T16:54:17.170Z,54.80
2018-03-03T16:56:43.536Z,54.60
2018-03-03T16:59:09.987Z,53.70
2018-03-03T17:01:36.342Z,53.50
2018-03-03T17:04:03.454Z,53.50
2018-03-03T17:06:29.828Z,53.40
2018-03-03T17:08:56.189Z,52.90
2018-03-03T17:11:22.656Z,52.70
2018-03-03T17:13:49.089Z,51.90
2018-03-03T17:16:15.466Z,51.60
2018-03-03T17:18:42.576Z,50.90
2018-03-03T17:21:08.949Z,50.80
2018-03-03T17:23:36.038Z,51.40
2018-03-03T17:26:02.431Z,51.40
2018-03-03T17:28:29.687Z,50.60
2018-03-03T17:30:56.083Z,50.70
2018-03-03T17:33:22.442Z,50.20
2018-03-03T17:35:49.547Z,49.90
2018-03-03T17:38:15.895Z,49.80
2018-03-03T17:40:42.270Z,50.10
2018-03-03T17:43:08.638Z,51.80
2018-03-03T17:45:35.022Z,51.60
2018-03-03T17:48:01.435Z,51.40
2018-03-03T17:50:28.555Z,51.00
2018-03-03T17:52:54.997Z,50.90
2018-03-03T17:55:21.453Z,51.60
2018-03-03T17:57:48.602Z,49.70
2018-03-03T18:00:15.712Z,50.70
2018-03-03T18:02:42.112Z,50.70
2018-03-03T18:05:08.578Z,50.40
2018-03-03T18:07:35.004Z,51.20
2018-03-03T18:10:01.490Z,52.10
2018-03-03T18:12:27.856Z,52.70
2018-03-03T18:14:54.903Z,52.40
2018-03-03T18:17:21.262Z,52.50
2018-03-03T18:19:47.627Z,52.90
2018-03-03T18:22:14.019Z,53.20
2018-03-03T18:24:40.421Z,53.20
2018-03-03T18:27:06.884Z,53.70
2018-03-03T18:29:33.295Z,53.40
2018-03-03T18:31:59.667Z,53.00
2018-03-03T18:34:26.090Z,53.40
2018-03-03T18:36:52.543Z,54.00
2018-03-03T18:39:18.906Z,55.20
2018-03-03T18:41:46.030Z,56.40
2018-03-03T18:44:12.416Z,56.40
2018-03-03T18:46:39.329Z,56.60
2018-03-03T18:49:05.690Z,57.20
2018-03-03T18:51:32.052Z,57.80
2018-03-03T18:53:58.478Z,57.90
2018-03-03T18:56:24.855Z,57.50
2018-03-03T18:58:51.384Z,57.90
2018-03-03T19:01:17.784Z,58.10
2018-03-03T19:03:44.173Z,58.50
2018-03-03T19:06:10.599Z,58.80
2018-03-03T19:08:36.998Z,60.00
2018-03-03T19:11:04.099Z,61.60
2018-03-03T19:13:31.464Z,61.40
2018-03-03T19:15:57.874Z,60.30
2018-03-03T19:18:24.261Z,59.80
2018-03-03T19:20:50.692Z,60.70
2018-03-03T19:23:17.844Z,60.30
2018-03-03T19:25:44.238Z,59.80
2018-03-03T19:28:10.619Z,59.80
2018-03-03T19:30:37.736Z,59.70
2018-03-03T19:33:04.135Z,59.60
2018-03-03T19:35:30.518Z,60.60
2018-03-03T19:37:56.912Z,60.90
2018-03-03T19:40:23.315Z,61.20
2018-03-03T19:42:49.680Z,60.60
2018-03-03T19:45:16.041Z,60.80
2018-03-03T19:47:42.414Z,61.30
2018-03-03T19:50:08.811Z,61.60
2018-03-03T19:52:35.918Z,62.30
2018-03-03T19:55:02.290Z,62.10
2018-03-03T19:57:28.651Z,61.90
2018-03-03T19:59:55.172Z,62.50
2018-03-03T20:02:22.284Z,63.50
2018-03-03T20:04:48.642Z,63.40
2018-03-03T20:07:15.766Z,65.00
2018-03-03T20:09:42.115Z,65.00
2018-03-03T20:12:08.515Z,65.80
2018-03-03T20:14:34.907Z,65.40
2018-03-03T20:17:02.029Z,64.20
2018-03-03T20:19:29.189Z,62.50
2018-03-03T20:21:56.387Z,62.20
2018-03-03T20:24:24.250Z,62.10
2018-03-03T20:26:50.659Z,62.10
2018-03-03T20:29:17.072Z,65.20
2018-03-03T20:31:43.471Z,67.60
2018-03-03T20:34:09.885Z,68.80
2018-03-03T20:36:36.336Z,70.00
2018-03-03T20:39:02.846Z,69.10
2018-03-03T20:41:29.244Z,68.60
2018-03-03T20:43:55.602Z,68.80
2018-03-03T20:46:22.047Z,69.00
2018-03-03T20:48:48.448Z,69.60
2018-03-03T20:51:14.805Z,69.50
2018-03-03T20:53:41.162Z,68.40
2018-03-03T20:56:07.560Z,67.80
2018-03-03T20:58:33.968Z,68.00
2018-03-03T21:01:01.076Z,66.10
2018-03-03T21:03:27.556Z,66.10
2018-03-03T21:05:53.925Z,64.70
2018-03-03T21:08:20.274Z,64.60
2018-03-03T21:10:46.682Z,64.40
2018-03-03T21:13:13.071Z,64.00
2018-03-03T21:15:40.191Z,65.90
2018-03-03T21:18:06.583Z,65.80
2018-03-03T21:20:32.951Z,67.10
2018-03-03T21:22:59.324Z,66.90
2018-03-03T21:25:26.440Z,67.20
2018-03-03T21:27:52.791Z,67.10
2018-03-03T21:30:19.894Z,68.50
2018-03-03T21:32:46.304Z,67.90
2018-03-03T21:35:12.685Z,69.90
2018-03-03T21:37:39.125Z,69.30
2018-03-03T21:40:05.502Z,69.70
2018-03-03T21:42:31.962Z,69.80
2018-03-03T21:44:58.330Z,70.30
2018-03-03T21:47:25.455Z,70.80
2018-03-03T21:49:51.833Z,70.80
2018-03-03T21:52:18.270Z,70.00
2018-03-03T21:54:44.638Z,70.10
2018-03-03T21:57:10.991Z,70.40
2018-03-03T21:59:37.353Z,70.10
2018-03-03T22:02:03.762Z,68.80
2018-03-03T22:04:30.880Z,68.40
2018-03-03T22:06:57.354Z,68.40
2018-03-03T22:09:23.744Z,69.60
2018-03-03T22:11:50.143Z,69.30
2018-03-03T22:14:16.506Z,68.80
2018-03-03T22:16:42.847Z,68.80
2018-03-03T22:19:09.199Z,69.40
2018-03-03T22:21:36.316Z,70.00
2018-03-03T22:24:02.678Z,69.90
2018-03-03T22:26:29.030Z,70.80
2018-03-03T22:28:56.137Z,69.50
2018-03-03T22:31:22.518Z,69.50
2018-03-03T22:33:48.893Z,70.00
2018-03-03T22:36:15.258Z,69.60
2018-03-03T22:38:42.435Z,69.80
2018-03-03T22:41:08.798Z,69.40
2018-03-03T22:43:35.153Z,70.10
2018-03-03T22:46:03.021Z,71.60
2018-03-03T22:48:29.383Z,71.50
2018-03-03T22:50:55.754Z,71.10
2018-03-03T22:53:22.114Z,71.50
2018-03-03T22:55:48.473Z,71.40
2018-03-03T22:58:14.837Z,71.10
2018-03-03T23:00:41.261Z,71.50
2018-03-03T23:03:07.611Z,71.20
2018-03-03T23:05:34.006Z,70.70
2018-03-03T23:08:00.361Z,70.90
2018-03-03T23:10:26.722Z,70.60
2018-03-03T23:12:53.081Z,70.00
2018-03-03T23:15:20.199Z,70.50
2018-03-03T23:17:46.575Z,70.40
2018-03-03T23:20:13.747Z,70.40
2018-03-03T23:22:40.848Z,70.10
2018-03-03T23:25:07.967Z,70.50
2018-03-03T23:27:35.072Z,71.70
2018-03-03T23:30:01.436Z,71.60
2018-03-03T23:32:27.823Z,71.00
2018-03-03T23:34:54.907Z,69.80
2018-03-03T23:37:21.243Z,69.80
2018-03-03T23:39:47.603Z,70.30
2018-03-03T23:42:13.980Z,70.20
2018-03-03T23:44:41.067Z,70.20
2018-03-03T23:47:07.439Z,70.20
2018-03-03T23:49:34.552Z,71.40
2018-03-03T23:52:00.947Z,71.30
2018-03-03T23:54:27.292Z,71.80
2018-03-03T23:56:53.644Z,71.70
2018-03-03T23:59:20.156Z,71.20
